sensor_id;sensor_type;location;lat;lon;timestamp;P1;durP1;ratioP1;P2;durP2;ratioP2
7969;SDS011;4030;52.362;9.206;2023-10-08T00:02:45;3.38;;;1.10;;
7969;SDS011;4030;52.362;9.206;2023-10-08T00:05:10;1.73;;;1.00;;
7969;SDS011;4030;52.362;9.206;2023-10-08T00:07:40;1.10;;;0.90;;
7969;SDS011;4030;52.362;9.206;2023-10-08T00:10:07;2.38;;;1.13;;
7969;SDS011;4030;52.362;9.206;2023-10-08T00:12:34;1.42;;;0.90;;
7969;SDS011;4030;52.362;9.206;2023-10-08T00:14:59;1.35;;;0.90;;
7969;SDS011;4030;52.362;9.206;2023-10-08T00:17:25;1.08;;;0.80;;
7969;SDS011;4030;52.362;9.206;2023-10-08T00:19:51;0.70;;;0.70;;
7969;SDS011;4030;52.362;9.206;2023-10-08T00:22:18;0.93;;;0.70;;
7969;SDS011;4030;52.362;9.206;2023-10-08T00:24:45;1.10;;;0.70;;
7969;SDS011;4030;52.362;9.206;2023-10-08T00:27:11;0.63;;;0.57;;
7969;SDS011;4030;52.362;9.206;2023-10-08T00:29:40;0.73;;;0.60;;
7969;SDS011;4030;52.362;9.206;2023-10-08T00:32:08;1.10;;;0.70;;
7969;SDS011;4030;52.362;9.206;2023-10-08T00:34:40;1.00;;;0.50;;
7969;SDS011;4030;52.362;9.206;2023-10-08T00:37:08;0.50;;;0.50;;
7969;SDS011;4030;52.362;9.206;2023-10-08T00:39:35;0.60;;;0.50;;
7969;SDS011;4030;52.362;9.206;2023-10-08T00:42:03;0.50;;;0.50;;
7969;SDS011;4030;52.362;9.206;2023-10-08T00:44:38;0.40;;;0.40;;
7969;SDS011;4030;52.362;9.206;2023-10-08T00:47:12;0.77;;;0.43;;
7969;SDS011;4030;52.362;9.206;2023-10-08T00:49:39;0.70;;;0.50;;
7969;SDS011;4030;52.362;9.206;2023-10-08T00:52:11;0.60;;;0.60;;
7969;SDS011;4030;52.362;9.206;2023-10-08T00:54:39;0.55;;;0.50;;
7969;SDS011;4030;52.362;9.206;2023-10-08T00:57:19;0.57;;;0.50;;
7969;SDS011;4030;52.362;9.206;2023-10-08T00:59:49;0.65;;;0.40;;
7969;SDS011;4030;52.362;9.206;2023-10-08T01:02:24;0.70;;;0.40;;
7969;SDS011;4030;52.362;9.206;2023-10-08T01:04:53;0.40;;;0.38;;
7969;SDS011;4030;52.362;9.206;2023-10-08T01:07:22;0.45;;;0.40;;
7969;SDS011;4030;52.362;9.206;2023-10-08T01:09:50;0.80;;;0.50;;
7969;SDS011;4030;52.362;9.206;2023-10-08T01:12:17;0.77;;;0.40;;
7969;SDS011;4030;52.362;9.206;2023-10-08T01:14:59;1.70;;;0.60;;
7969;SDS011;4030;52.362;9.206;2023-10-08T01:17:41;0.90;;;0.45;;
7969;SDS011;4030;52.362;9.206;2023-10-08T01:20:26;1.02;;;0.50;;
7969;SDS011;4030;52.362;9.206;2023-10-08T01:23:00;0.82;;;0.40;;
7969;SDS011;4030;52.362;9.206;2023-10-08T01:25:34;1.33;;;0.60;;
7969;SDS011;4030;52.362;9.206;2023-10-08T01:28:01;1.65;;;0.60;;
7969;SDS011;4030;52.362;9.206;2023-10-08T01:30:34;1.92;;;0.73;;
7969;SDS011;4030;52.362;9.206;2023-10-08T01:33:06;1.27;;;0.50;;
7969;SDS011;4030;52.362;9.206;2023-10-08T01:35:40;1.02;;;0.68;;
7969;SDS011;4030;52.362;9.206;2023-10-08T01:38:06;0.95;;;0.60;;
7969;SDS011;4030;52.362;9.206;2023-10-08T01:40:38;1.33;;;0.70;;
7969;SDS011;4030;52.362;9.206;2023-10-08T01:43:05;1.63;;;0.70;;
7969;SDS011;4030;52.362;9.206;2023-10-08T01:45:30;1.88;;;0.80;;
7969;SDS011;4030;52.362;9.206;2023-10-08T01:47:57;1.38;;;0.80;;
7969;SDS011;4030;52.362;9.206;2023-10-08T01:50:23;1.73;;;0.90;;
7969;SDS011;4030;52.362;9.206;2023-10-08T01:52:54;2.10;;;0.70;;
7969;SDS011;4030;52.362;9.206;2023-10-08T01:55:20;1.15;;;0.73;;
7969;SDS011;4030;52.362;9.206;2023-10-08T01:57:48;1.23;;;0.60;;
7969;SDS011;4030;52.362;9.206;2023-10-08T02:00:18;1.73;;;0.82;;
7969;SDS011;4030;52.362;9.206;2023-10-08T02:02:47;1.48;;;0.80;;
7969;SDS011;4030;52.362;9.206;2023-10-08T02:05:18;1.88;;;0.70;;
7969;SDS011;4030;52.362;9.206;2023-10-08T02:07:46;1.48;;;0.75;;
7969;SDS011;4030;52.362;9.206;2023-10-08T02:10:11;1.55;;;0.80;;
7969;SDS011;4030;52.362;9.206;2023-10-08T02:12:39;1.23;;;0.73;;
7969;SDS011;4030;52.362;9.206;2023-10-08T02:15:06;2.45;;;0.90;;
7969;SDS011;4030;52.362;9.206;2023-10-08T02:17:33;2.72;;;0.98;;
7969;SDS011;4030;52.362;9.206;2023-10-08T02:19:59;1.40;;;0.70;;
7969;SDS011;4030;52.362;9.206;2023-10-08T02:22:30;1.42;;;0.93;;
7969;SDS011;4030;52.362;9.206;2023-10-08T02:24:56;1.20;;;0.60;;
7969;SDS011;4030;52.362;9.206;2023-10-08T02:27:26;2.78;;;0.90;;
7969;SDS011;4030;52.362;9.206;2023-10-08T02:29:58;1.98;;;0.75;;
7969;SDS011;4030;52.362;9.206;2023-10-08T02:32:23;1.95;;;0.88;;
7969;SDS011;4030;52.362;9.206;2023-10-08T02:34:49;1.70;;;0.90;;
7969;SDS011;4030;52.362;9.206;2023-10-08T02:37:15;2.85;;;0.90;;
7969;SDS011;4030;52.362;9.206;2023-10-08T02:39:42;1.35;;;0.70;;
7969;SDS011;4030;52.362;9.206;2023-10-08T02:42:07;2.60;;;0.80;;
7969;SDS011;4030;52.362;9.206;2023-10-08T02:44:36;2.10;;;0.80;;
7969;SDS011;4030;52.362;9.206;2023-10-08T02:47:07;1.98;;;1.02;;
7969;SDS011;4030;52.362;9.206;2023-10-08T02:49:37;1.80;;;0.90;;
7969;SDS011;4030;52.362;9.206;2023-10-08T02:52:06;2.20;;;1.10;;
7969;SDS011;4030;52.362;9.206;2023-10-08T02:54:34;1.98;;;0.95;;
7969;SDS011;4030;52.362;9.206;2023-10-08T02:57:01;1.92;;;0.90;;
7969;SDS011;4030;52.362;9.206;2023-10-08T02:59:35;2.28;;;1.00;;
7969;SDS011;4030;52.362;9.206;2023-10-08T03:02:08;2.13;;;0.85;;
7969;SDS011;4030;52.362;9.206;2023-10-08T03:04:43;1.73;;;0.90;;
7969;SDS011;4030;52.362;9.206;2023-10-08T03:07:11;1.73;;;1.00;;
7969;SDS011;4030;52.362;9.206;2023-10-08T03:09:49;3.13;;;0.85;;
7969;SDS011;4030;52.362;9.206;2023-10-08T03:12:28;1.55;;;0.93;;
7969;SDS011;4030;52.362;9.206;2023-10-08T03:14:57;1.83;;;0.90;;
7969;SDS011;4030;52.362;9.206;2023-10-08T03:17:36;2.53;;;0.88;;
7969;SDS011;4030;52.362;9.206;2023-10-08T03:20:02;1.75;;;0.93;;
7969;SDS011;4030;52.362;9.206;2023-10-08T03:22:47;2.05;;;0.90;;
7969;SDS011;4030;52.362;9.206;2023-10-08T03:25:14;1.88;;;1.00;;
7969;SDS011;4030;52.362;9.206;2023-10-08T03:27:45;1.50;;;0.80;;
7969;SDS011;4030;52.362;9.206;2023-10-08T03:30:13;1.92;;;0.85;;
7969;SDS011;4030;52.362;9.206;2023-10-08T03:32:40;1.42;;;0.80;;
7969;SDS011;4030;52.362;9.206;2023-10-08T03:35:10;2.95;;;1.00;;
7969;SDS011;4030;52.362;9.206;2023-10-08T03:37:36;2.80;;;0.90;;
7969;SDS011;4030;52.362;9.206;2023-10-08T03:40:06;1.60;;;1.00;;
7969;SDS011;4030;52.362;9.206;2023-10-08T03:42:47;2.53;;;1.00;;
7969;SDS011;4030;52.362;9.206;2023-10-08T03:45:14;1.75;;;0.85;;
7969;SDS011;4030;52.362;9.206;2023-10-08T03:47:47;2.20;;;0.93;;
7969;SDS011;4030;52.362;9.206;2023-10-08T03:50:28;2.78;;;0.82;;
7969;SDS011;4030;52.362;9.206;2023-10-08T03:52:57;1.45;;;0.82;;
7969;SDS011;4030;52.362;9.206;2023-10-08T03:55:23;1.52;;;0.80;;
7969;SDS011;4030;52.362;9.206;2023-10-08T03:57:52;1.75;;;0.90;;
7969;SDS011;4030;52.362;9.206;2023-10-08T04:00:28;2.33;;;0.90;;
7969;SDS011;4030;52.362;9.206;2023-10-08T04:02:56;2.08;;;0.70;;
7969;SDS011;4030;52.362;9.206;2023-10-08T04:05:26;2.20;;;0.98;;
7969;SDS011;4030;52.362;9.206;2023-10-08T04:07:57;1.55;;;0.80;;
7969;SDS011;4030;52.362;9.206;2023-10-08T04:10:23;2.30;;;0.95;;
7969;SDS011;4030;52.362;9.206;2023-10-08T04:13:07;1.67;;;0.90;;
7969;SDS011;4030;52.362;9.206;2023-10-08T04:15:36;1.17;;;0.80;;
7969;SDS011;4030;52.362;9.206;2023-10-08T04:18:05;1.25;;;0.82;;
7969;SDS011;4030;52.362;9.206;2023-10-08T04:20:36;2.17;;;0.90;;
7969;SDS011;4030;52.362;9.206;2023-10-08T04:23:17;2.92;;;1.00;;
7969;SDS011;4030;52.362;9.206;2023-10-08T04:25:48;1.95;;;0.98;;
7969;SDS011;4030;52.362;9.206;2023-10-08T04:28:19;1.48;;;0.90;;
7969;SDS011;4030;52.362;9.206;2023-10-08T04:30:46;1.33;;;0.80;;
7969;SDS011;4030;52.362;9.206;2023-10-08T04:33:13;1.90;;;0.90;;
7969;SDS011;4030;52.362;9.206;2023-10-08T04:35:43;2.97;;;0.90;;
7969;SDS011;4030;52.362;9.206;2023-10-08T04:38:26;1.30;;;0.80;;
7969;SDS011;4030;52.362;9.206;2023-10-08T04:40:53;1.60;;;0.82;;
7969;SDS011;4030;52.362;9.206;2023-10-08T04:45:51;1.60;;;0.70;;
7969;SDS011;4030;52.362;9.206;2023-10-08T04:48:17;1.88;;;0.90;;
7969;SDS011;4030;52.362;9.206;2023-10-08T04:50:47;1.58;;;0.90;;
7969;SDS011;4030;52.362;9.206;2023-10-08T04:53:24;2.22;;;0.90;;
7969;SDS011;4030;52.362;9.206;2023-10-08T04:56:00;3.72;;;0.73;;
7969;SDS011;4030;52.362;9.206;2023-10-08T04:58:38;1.60;;;0.90;;
7969;SDS011;4030;52.362;9.206;2023-10-08T05:01:06;2.20;;;0.80;;
7969;SDS011;4030;52.362;9.206;2023-10-08T05:03:53;1.67;;;1.00;;
7969;SDS011;4030;52.362;9.206;2023-10-08T05:06:20;1.83;;;0.80;;
7969;SDS011;4030;52.362;9.206;2023-10-08T05:09:01;1.75;;;0.82;;
7969;SDS011;4030;52.362;9.206;2023-10-08T05:11:52;2.00;;;0.80;;
7969;SDS011;4030;52.362;9.206;2023-10-08T05:14:35;1.90;;;1.00;;
7969;SDS011;4030;52.362;9.206;2023-10-08T05:17:10;1.02;;;0.75;;
7969;SDS011;4030;52.362;9.206;2023-10-08T05:19:47;2.28;;;0.80;;
7969;SDS011;4030;52.362;9.206;2023-10-08T05:22:46;2.80;;;1.00;;
7969;SDS011;4030;52.362;9.206;2023-10-08T05:25:20;0.93;;;0.70;;
7969;SDS011;4030;52.362;9.206;2023-10-08T05:27:46;1.67;;;0.70;;
7969;SDS011;4030;52.362;9.206;2023-10-08T05:30:12;1.08;;;0.70;;
7969;SDS011;4030;52.362;9.206;2023-10-08T05:32:50;1.50;;;0.70;;
7969;SDS011;4030;52.362;9.206;2023-10-08T05:35:35;1.13;;;0.80;;
7969;SDS011;4030;52.362;9.206;2023-10-08T05:38:11;1.25;;;0.70;;
7969;SDS011;4030;52.362;9.206;2023-10-08T05:40:42;2.08;;;0.93;;
7969;SDS011;4030;52.362;9.206;2023-10-08T05:43:26;1.67;;;0.80;;
7969;SDS011;4030;52.362;9.206;2023-10-08T05:46:12;1.95;;;0.70;;
7969;SDS011;4030;52.362;9.206;2023-10-08T05:51:34;1.73;;;0.90;;
7969;SDS011;4030;52.362;9.206;2023-10-08T05:54:14;1.38;;;0.73;;
7969;SDS011;4030;52.362;9.206;2023-10-08T05:56:55;1.45;;;0.65;;
7969;SDS011;4030;52.362;9.206;2023-10-08T05:59:34;1.27;;;0.73;;
7969;SDS011;4030;52.362;9.206;2023-10-08T06:02:23;1.55;;;0.77;;
7969;SDS011;4030;52.362;9.206;2023-10-08T06:05:00;1.27;;;0.80;;
7969;SDS011;4030;52.362;9.206;2023-10-08T06:07:41;1.38;;;0.73;;
7969;SDS011;4030;52.362;9.206;2023-10-08T06:10:18;2.22;;;0.80;;
7969;SDS011;4030;52.362;9.206;2023-10-08T06:13:06;1.25;;;0.57;;
7969;SDS011;4030;52.362;9.206;2023-10-08T06:16:08;1.42;;;0.75;;
7969;SDS011;4030;52.362;9.206;2023-10-08T06:18:34;1.63;;;0.88;;
7969;SDS011;4030;52.362;9.206;2023-10-08T06:23:34;1.83;;;0.82;;
7969;SDS011;4030;52.362;9.206;2023-10-08T06:26:02;2.15;;;0.90;;
7969;SDS011;4030;52.362;9.206;2023-10-08T06:28:34;0.95;;;0.70;;
7969;SDS011;4030;52.362;9.206;2023-10-08T06:31:00;1.80;;;0.90;;
7969;SDS011;4030;52.362;9.206;2023-10-08T06:33:31;1.90;;;0.95;;
7969;SDS011;4030;52.362;9.206;2023-10-08T06:35:58;1.35;;;0.70;;
7969;SDS011;4030;52.362;9.206;2023-10-08T06:38:34;1.13;;;0.90;;
7969;SDS011;4030;52.362;9.206;2023-10-08T06:41:03;1.55;;;0.85;;
7969;SDS011;4030;52.362;9.206;2023-10-08T06:43:43;1.83;;;0.88;;
7969;SDS011;4030;52.362;9.206;2023-10-08T06:46:29;1.38;;;0.82;;
7969;SDS011;4030;52.362;9.206;2023-10-08T06:49:01;1.65;;;0.88;;
7969;SDS011;4030;52.362;9.206;2023-10-08T06:51:28;2.05;;;0.90;;
7969;SDS011;4030;52.362;9.206;2023-10-08T06:53:55;1.33;;;0.70;;
7969;SDS011;4030;52.362;9.206;2023-10-08T06:56:25;1.65;;;0.70;;
7969;SDS011;4030;52.362;9.206;2023-10-08T06:58:50;1.17;;;0.70;;
7969;SDS011;4030;52.362;9.206;2023-10-08T07:01:19;2.40;;;0.90;;
7969;SDS011;4030;52.362;9.206;2023-10-08T07:03:53;2.15;;;1.00;;
7969;SDS011;4030;52.362;9.206;2023-10-08T07:06:28;1.50;;;0.95;;
7969;SDS011;4030;52.362;9.206;2023-10-08T07:08:59;3.42;;;1.00;;
7969;SDS011;4030;52.362;9.206;2023-10-08T07:11:29;1.25;;;0.88;;
7969;SDS011;4030;52.362;9.206;2023-10-08T07:14:02;1.65;;;0.90;;
7969;SDS011;4030;52.362;9.206;2023-10-08T07:16:29;1.88;;;0.90;;
7969;SDS011;4030;52.362;9.206;2023-10-08T07:18:56;1.30;;;0.80;;
7969;SDS011;4030;52.362;9.206;2023-10-08T07:21:41;2.92;;;1.13;;
7969;SDS011;4030;52.362;9.206;2023-10-08T07:24:10;1.88;;;0.88;;
7969;SDS011;4030;52.362;9.206;2023-10-08T07:26:43;2.00;;;0.90;;
7969;SDS011;4030;52.362;9.206;2023-10-08T07:29:12;1.20;;;0.85;;
7969;SDS011;4030;52.362;9.206;2023-10-08T07:31:44;1.63;;;1.00;;
7969;SDS011;4030;52.362;9.206;2023-10-08T07:34:17;1.33;;;0.82;;
7969;SDS011;4030;52.362;9.206;2023-10-08T07:36:50;1.70;;;0.93;;
7969;SDS011;4030;52.362;9.206;2023-10-08T07:39:17;0.80;;;0.70;;
7969;SDS011;4030;52.362;9.206;2023-10-08T07:41:59;1.95;;;1.02;;
7969;SDS011;4030;52.362;9.206;2023-10-08T07:44:30;2.38;;;0.80;;
7969;SDS011;4030;52.362;9.206;2023-10-08T07:46:56;1.58;;;1.00;;
7969;SDS011;4030;52.362;9.206;2023-10-08T07:49:23;1.63;;;1.00;;
7969;SDS011;4030;52.362;9.206;2023-10-08T07:51:50;2.63;;;1.20;;
7969;SDS011;4030;52.362;9.206;2023-10-08T07:54:22;2.40;;;1.02;;
7969;SDS011;4030;52.362;9.206;2023-10-08T07:56:50;1.75;;;1.00;;
7969;SDS011;4030;52.362;9.206;2023-10-08T08:02:11;3.47;;;1.15;;
7969;SDS011;4030;52.362;9.206;2023-10-08T08:04:39;2.35;;;0.95;;
7969;SDS011;4030;52.362;9.206;2023-10-08T08:07:10;1.27;;;0.80;;
7969;SDS011;4030;52.362;9.206;2023-10-08T08:09:43;2.38;;;1.15;;
7969;SDS011;4030;52.362;9.206;2023-10-08T08:12:23;1.60;;;0.90;;
7969;SDS011;4030;52.362;9.206;2023-10-08T08:14:57;1.73;;;0.98;;
7969;SDS011;4030;52.362;9.206;2023-10-08T08:17:24;2.75;;;1.10;;
7969;SDS011;4030;52.362;9.206;2023-10-08T08:19:51;2.40;;;1.00;;
7969;SDS011;4030;52.362;9.206;2023-10-08T08:22:18;1.77;;;0.90;;
7969;SDS011;4030;52.362;9.206;2023-10-08T08:24:48;2.40;;;1.00;;
7969;SDS011;4030;52.362;9.206;2023-10-08T08:27:20;2.05;;;1.02;;
7969;SDS011;4030;52.362;9.206;2023-10-08T08:29:50;2.45;;;1.00;;
7969;SDS011;4030;52.362;9.206;2023-10-08T08:32:20;3.53;;;1.17;;
7969;SDS011;4030;52.362;9.206;2023-10-08T08:34:48;1.83;;;1.00;;
7969;SDS011;4030;52.362;9.206;2023-10-08T08:37:18;2.08;;;1.10;;
7969;SDS011;4030;52.362;9.206;2023-10-08T08:39:47;2.50;;;1.00;;
7969;SDS011;4030;52.362;9.206;2023-10-08T08:42:13;2.05;;;1.00;;
7969;SDS011;4030;52.362;9.206;2023-10-08T08:44:41;1.75;;;0.85;;
7969;SDS011;4030;52.362;9.206;2023-10-08T08:47:13;2.35;;;0.93;;
7969;SDS011;4030;52.362;9.206;2023-10-08T08:49:42;1.50;;;0.82;;
7969;SDS011;4030;52.362;9.206;2023-10-08T08:52:12;1.55;;;0.88;;
7969;SDS011;4030;52.362;9.206;2023-10-08T08:54:39;1.95;;;1.17;;
7969;SDS011;4030;52.362;9.206;2023-10-08T08:57:07;1.25;;;0.88;;
7969;SDS011;4030;52.362;9.206;2023-10-08T08:59:40;2.72;;;0.93;;
7969;SDS011;4030;52.362;9.206;2023-10-08T09:02:18;2.45;;;1.00;;
7969;SDS011;4030;52.362;9.206;2023-10-08T09:04:44;2.10;;;0.90;;
7969;SDS011;4030;52.362;9.206;2023-10-08T09:07:11;2.35;;;1.00;;
7969;SDS011;4030;52.362;9.206;2023-10-08T09:09:37;1.52;;;0.82;;
7969;SDS011;4030;52.362;9.206;2023-10-08T09:12:04;1.52;;;0.90;;
7969;SDS011;4030;52.362;9.206;2023-10-08T09:14:35;1.30;;;0.82;;
7969;SDS011;4030;52.362;9.206;2023-10-08T09:17:03;2.47;;;1.13;;
7969;SDS011;4030;52.362;9.206;2023-10-08T09:19:30;2.50;;;1.10;;
7969;SDS011;4030;52.362;9.206;2023-10-08T09:24:39;1.48;;;0.90;;
7969;SDS011;4030;52.362;9.206;2023-10-08T09:27:07;2.10;;;1.00;;
7969;SDS011;4030;52.362;9.206;2023-10-08T09:29:39;2.80;;;0.90;;
7969;SDS011;4030;52.362;9.206;2023-10-08T09:32:05;2.08;;;1.00;;
7969;SDS011;4030;52.362;9.206;2023-10-08T09:34:36;2.20;;;1.15;;
7969;SDS011;4030;52.362;9.206;2023-10-08T09:37:02;2.88;;;0.90;;
7969;SDS011;4030;52.362;9.206;2023-10-08T09:39:28;2.72;;;1.08;;
7969;SDS011;4030;52.362;9.206;2023-10-08T09:41:59;2.15;;;0.80;;
7969;SDS011;4030;52.362;9.206;2023-10-08T09:44:36;1.67;;;0.73;;
7969;SDS011;4030;52.362;9.206;2023-10-08T09:47:06;2.15;;;0.95;;
7969;SDS011;4030;52.362;9.206;2023-10-08T09:49:38;2.33;;;0.95;;
7969;SDS011;4030;52.362;9.206;2023-10-08T09:52:19;1.73;;;0.80;;
7969;SDS011;4030;52.362;9.206;2023-10-08T09:54:59;3.03;;;1.00;;
7969;SDS011;4030;52.362;9.206;2023-10-08T09:57:28;2.25;;;1.10;;
7969;SDS011;4030;52.362;9.206;2023-10-08T09:59:54;1.42;;;0.82;;
7969;SDS011;4030;52.362;9.206;2023-10-08T10:02:22;3.05;;;1.08;;
7969;SDS011;4030;52.362;9.206;2023-10-08T10:04:52;1.40;;;0.82;;
7969;SDS011;4030;52.362;9.206;2023-10-08T10:07:19;3.00;;;0.98;;
7969;SDS011;4030;52.362;9.206;2023-10-08T10:09:50;1.92;;;0.90;;
7969;SDS011;4030;52.362;9.206;2023-10-08T10:12:20;2.00;;;1.00;;
7969;SDS011;4030;52.362;9.206;2023-10-08T10:14:54;2.75;;;0.88;;
7969;SDS011;4030;52.362;9.206;2023-10-08T10:17:22;2.25;;;0.90;;
7969;SDS011;4030;52.362;9.206;2023-10-08T10:19:54;3.35;;;1.08;;
7969;SDS011;4030;52.362;9.206;2023-10-08T10:22:34;2.42;;;0.95;;
7969;SDS011;4030;52.362;9.206;2023-10-08T10:25:04;5.63;;;1.38;;
7969;SDS011;4030;52.362;9.206;2023-10-08T10:27:42;4.93;;;1.20;;
7969;SDS011;4030;52.362;9.206;2023-10-08T10:30:20;3.85;;;1.00;;
7969;SDS011;4030;52.362;9.206;2023-10-08T10:32:48;3.65;;;1.10;;
7969;SDS011;4030;52.362;9.206;2023-10-08T10:35:17;2.95;;;1.20;;
7969;SDS011;4030;52.362;9.206;2023-10-08T10:37:44;4.53;;;1.40;;
7969;SDS011;4030;52.362;9.206;2023-10-08T10:40:19;2.72;;;1.25;;
7969;SDS011;4030;52.362;9.206;2023-10-08T10:42:58;2.60;;;1.02;;
7969;SDS011;4030;52.362;9.206;2023-10-08T10:45:29;2.85;;;1.20;;
7969;SDS011;4030;52.362;9.206;2023-10-08T10:48:04;4.35;;;1.20;;
7969;SDS011;4030;52.362;9.206;2023-10-08T10:50:41;3.70;;;1.27;;
7969;SDS011;4030;52.362;9.206;2023-10-08T10:53:27;3.38;;;0.98;;
7969;SDS011;4030;52.362;9.206;2023-10-08T10:55:54;3.28;;;1.05;;
7969;SDS011;4030;52.362;9.206;2023-10-08T10:58:28;3.47;;;1.02;;
7969;SDS011;4030;52.362;9.206;2023-10-08T11:01:03;1.63;;;0.90;;
7969;SDS011;4030;52.362;9.206;2023-10-08T11:03:41;4.07;;;1.20;;
7969;SDS011;4030;52.362;9.206;2023-10-08T11:06:09;3.85;;;1.40;;
7969;SDS011;4030;52.362;9.206;2023-10-08T11:08:40;3.67;;;1.10;;
7969;SDS011;4030;52.362;9.206;2023-10-08T11:11:11;4.22;;;1.00;;
7969;SDS011;4030;52.362;9.206;2023-10-08T11:13:36;3.20;;;1.13;;
7969;SDS011;4030;52.362;9.206;2023-10-08T11:16:04;5.18;;;1.40;;
7969;SDS011;4030;52.362;9.206;2023-10-08T11:18:32;1.98;;;0.85;;
7969;SDS011;4030;52.362;9.206;2023-10-08T11:21:05;2.58;;;1.05;;
7969;SDS011;4030;52.362;9.206;2023-10-08T11:23:47;3.00;;;1.10;;
7969;SDS011;4030;52.362;9.206;2023-10-08T11:26:35;2.33;;;1.13;;
7969;SDS011;4030;52.362;9.206;2023-10-08T11:29:04;2.38;;;1.08;;
7969;SDS011;4030;52.362;9.206;2023-10-08T11:31:39;3.78;;;1.25;;
7969;SDS011;4030;52.362;9.206;2023-10-08T11:34:05;3.13;;;1.27;;
7969;SDS011;4030;52.362;9.206;2023-10-08T11:36:35;3.65;;;1.20;;
7969;SDS011;4030;52.362;9.206;2023-10-08T11:39:14;3.42;;;0.90;;
7969;SDS011;4030;52.362;9.206;2023-10-08T11:41:56;4.22;;;1.40;;
7969;SDS011;4030;52.362;9.206;2023-10-08T11:44:31;4.03;;;1.30;;
7969;SDS011;4030;52.362;9.206;2023-10-08T11:47:01;2.55;;;1.10;;
7969;SDS011;4030;52.362;9.206;2023-10-08T11:49:37;3.33;;;1.30;;
7969;SDS011;4030;52.362;9.206;2023-10-08T11:52:11;3.80;;;1.50;;
7969;SDS011;4030;52.362;9.206;2023-10-08T11:54:40;4.05;;;1.33;;
7969;SDS011;4030;52.362;9.206;2023-10-08T11:57:07;2.47;;;1.15;;
7969;SDS011;4030;52.362;9.206;2023-10-08T11:59:34;2.75;;;1.20;;
7969;SDS011;4030;52.362;9.206;2023-10-08T12:02:04;5.45;;;1.30;;
7969;SDS011;4030;52.362;9.206;2023-10-08T12:04:33;3.97;;;1.42;;
7969;SDS011;4030;52.362;9.206;2023-10-08T12:07:01;2.78;;;1.15;;
7969;SDS011;4030;52.362;9.206;2023-10-08T12:09:32;2.80;;;1.27;;
7969;SDS011;4030;52.362;9.206;2023-10-08T12:12:02;2.42;;;1.25;;
7969;SDS011;4030;52.362;9.206;2023-10-08T12:14:34;4.65;;;1.30;;
7969;SDS011;4030;52.362;9.206;2023-10-08T12:17:02;3.45;;;1.35;;
7969;SDS011;4030;52.362;9.206;2023-10-08T12:19:36;3.10;;;1.20;;
7969;SDS011;4030;52.362;9.206;2023-10-08T12:22:05;4.38;;;1.50;;
7969;SDS011;4030;52.362;9.206;2023-10-08T12:24:32;2.60;;;1.20;;
7969;SDS011;4030;52.362;9.206;2023-10-08T12:26:58;2.20;;;1.00;;
7969;SDS011;4030;52.362;9.206;2023-10-08T12:29:24;2.40;;;1.00;;
7969;SDS011;4030;52.362;9.206;2023-10-08T12:31:51;2.83;;;1.02;;
7969;SDS011;4030;52.362;9.206;2023-10-08T12:34:18;2.90;;;1.08;;
7969;SDS011;4030;52.362;9.206;2023-10-08T12:36:44;3.13;;;1.10;;
7969;SDS011;4030;52.362;9.206;2023-10-08T12:39:13;3.55;;;1.20;;
7969;SDS011;4030;52.362;9.206;2023-10-08T12:41:41;3.00;;;1.13;;
7969;SDS011;4030;52.362;9.206;2023-10-08T12:44:08;2.40;;;1.10;;
7969;SDS011;4030;52.362;9.206;2023-10-08T12:46:35;3.30;;;1.30;;
7969;SDS011;4030;52.362;9.206;2023-10-08T12:49:01;3.20;;;1.10;;
7969;SDS011;4030;52.362;9.206;2023-10-08T12:51:28;2.72;;;1.27;;
7969;SDS011;4030;52.362;9.206;2023-10-08T12:53:57;2.13;;;1.17;;
7969;SDS011;4030;52.362;9.206;2023-10-08T12:56:28;3.38;;;1.30;;
7969;SDS011;4030;52.362;9.206;2023-10-08T12:59:00;3.85;;;1.30;;
7969;SDS011;4030;52.362;9.206;2023-10-08T13:01:30;3.72;;;1.25;;
7969;SDS011;4030;52.362;9.206;2023-10-08T13:03:57;2.40;;;1.20;;
7969;SDS011;4030;52.362;9.206;2023-10-08T13:06:26;3.15;;;1.10;;
7969;SDS011;4030;52.362;9.206;2023-10-08T13:08:56;1.98;;;1.00;;
7969;SDS011;4030;52.362;9.206;2023-10-08T13:11:24;3.00;;;1.25;;
7969;SDS011;4030;52.362;9.206;2023-10-08T13:13:54;2.10;;;0.93;;
7969;SDS011;4030;52.362;9.206;2023-10-08T13:16:22;3.63;;;1.10;;
7969;SDS011;4030;52.362;9.206;2023-10-08T13:18:50;3.33;;;1.20;;
7969;SDS011;4030;52.362;9.206;2023-10-08T13:21:16;3.13;;;1.27;;
7969;SDS011;4030;52.362;9.206;2023-10-08T13:23:44;3.33;;;1.40;;
7969;SDS011;4030;52.362;9.206;2023-10-08T13:26:10;2.50;;;1.10;;
7969;SDS011;4030;52.362;9.206;2023-10-08T13:28:42;3.33;;;1.23;;
7969;SDS011;4030;52.362;9.206;2023-10-08T13:31:09;2.25;;;1.27;;
7969;SDS011;4030;52.362;9.206;2023-10-08T13:33:36;2.35;;;1.10;;
7969;SDS011;4030;52.362;9.206;2023-10-08T13:36:07;3.20;;;1.08;;
7969;SDS011;4030;52.362;9.206;2023-10-08T13:38:35;2.72;;;1.00;;
7969;SDS011;4030;52.362;9.206;2023-10-08T13:41:02;1.88;;;1.20;;
7969;SDS011;4030;52.362;9.206;2023-10-08T13:43:43;2.35;;;1.10;;
7969;SDS011;4030;52.362;9.206;2023-10-08T13:46:10;2.08;;;0.90;;
7969;SDS011;4030;52.362;9.206;2023-10-08T13:48:39;1.92;;;1.00;;
7969;SDS011;4030;52.362;9.206;2023-10-08T13:51:07;3.75;;;1.10;;
7969;SDS011;4030;52.362;9.206;2023-10-08T13:53:39;4.07;;;1.10;;
7969;SDS011;4030;52.362;9.206;2023-10-08T13:56:06;1.73;;;0.93;;
7969;SDS011;4030;52.362;9.206;2023-10-08T13:58:31;2.55;;;1.08;;
7969;SDS011;4030;52.362;9.206;2023-10-08T14:01:00;1.58;;;0.90;;
7969;SDS011;4030;52.362;9.206;2023-10-08T14:03:28;2.63;;;1.02;;
7969;SDS011;4030;52.362;9.206;2023-10-08T14:05:59;2.03;;;0.90;;
7969;SDS011;4030;52.362;9.206;2023-10-08T14:08:30;2.20;;;1.10;;
7969;SDS011;4030;52.362;9.206;2023-10-08T14:10:56;1.88;;;1.05;;
7969;SDS011;4030;52.362;9.206;2023-10-08T14:13:31;2.35;;;0.95;;
7969;SDS011;4030;52.362;9.206;2023-10-08T14:16:00;1.63;;;0.90;;
7969;SDS011;4030;52.362;9.206;2023-10-08T14:18:33;1.90;;;1.20;;
7969;SDS011;4030;52.362;9.206;2023-10-08T14:21:08;1.92;;;0.98;;
7969;SDS011;4030;52.362;9.206;2023-10-08T14:23:38;2.35;;;1.05;;
7969;SDS011;4030;52.362;9.206;2023-10-08T14:26:07;3.08;;;1.10;;
7969;SDS011;4030;52.362;9.206;2023-10-08T14:28:34;1.67;;;1.00;;
7969;SDS011;4030;52.362;9.206;2023-10-08T14:31:17;2.08;;;0.90;;
7969;SDS011;4030;52.362;9.206;2023-10-08T14:33:47;2.13;;;1.20;;
7969;SDS011;4030;52.362;9.206;2023-10-08T14:36:32;2.50;;;1.10;;
7969;SDS011;4030;52.362;9.206;2023-10-08T14:39:17;2.35;;;1.20;;
7969;SDS011;4030;52.362;9.206;2023-10-08T14:42:02;2.90;;;1.17;;
7969;SDS011;4030;52.362;9.206;2023-10-08T14:44:47;1.98;;;1.20;;
7969;SDS011;4030;52.362;9.206;2023-10-08T14:47:14;2.20;;;1.13;;
7969;SDS011;4030;52.362;9.206;2023-10-08T14:49:40;3.08;;;1.20;;
7969;SDS011;4030;52.362;9.206;2023-10-08T14:52:07;2.47;;;1.17;;
7969;SDS011;4030;52.362;9.206;2023-10-08T14:54:34;3.92;;;1.20;;
7969;SDS011;4030;52.362;9.206;2023-10-08T14:57:00;4.20;;;1.10;;
7969;SDS011;4030;52.362;9.206;2023-10-08T14:59:27;2.72;;;1.20;;
7969;SDS011;4030;52.362;9.206;2023-10-08T15:01:54;3.05;;;1.30;;
7969;SDS011;4030;52.362;9.206;2023-10-08T15:04:20;2.40;;;1.00;;
7969;SDS011;4030;52.362;9.206;2023-10-08T15:06:47;2.50;;;1.20;;
7969;SDS011;4030;52.362;9.206;2023-10-08T15:09:14;2.80;;;1.10;;
7969;SDS011;4030;52.362;9.206;2023-10-08T15:11:46;2.13;;;1.10;;
7969;SDS011;4030;52.362;9.206;2023-10-08T15:14:13;2.47;;;1.00;;
7969;SDS011;4030;52.362;9.206;2023-10-08T15:16:40;2.67;;;1.10;;
7969;SDS011;4030;52.362;9.206;2023-10-08T15:19:08;2.67;;;1.08;;
7969;SDS011;4030;52.362;9.206;2023-10-08T15:21:37;3.13;;;1.25;;
7969;SDS011;4030;52.362;9.206;2023-10-08T15:24:04;2.63;;;1.08;;
7969;SDS011;4030;52.362;9.206;2023-10-08T15:26:36;1.85;;;1.08;;
7969;SDS011;4030;52.362;9.206;2023-10-08T15:29:04;1.85;;;0.98;;
7969;SDS011;4030;52.362;9.206;2023-10-08T15:31:30;2.28;;;1.10;;
7969;SDS011;4030;52.362;9.206;2023-10-08T15:33:56;2.10;;;0.98;;
7969;SDS011;4030;52.362;9.206;2023-10-08T15:36:22;4.22;;;1.60;;
7969;SDS011;4030;52.362;9.206;2023-10-08T15:38:48;3.70;;;1.27;;
7969;SDS011;4030;52.362;9.206;2023-10-08T15:41:13;2.40;;;1.10;;
7969;SDS011;4030;52.362;9.206;2023-10-08T15:43:44;2.20;;;0.95;;
7969;SDS011;4030;52.362;9.206;2023-10-08T15:46:18;2.28;;;1.00;;
7969;SDS011;4030;52.362;9.206;2023-10-08T15:48:45;2.45;;;1.20;;
7969;SDS011;4030;52.362;9.206;2023-10-08T15:51:11;2.13;;;1.20;;
7969;SDS011;4030;52.362;9.206;2023-10-08T15:53:37;3.17;;;1.08;;